sensor_id;sensor_type;location;lat;lon;timestamp;pressure;altitude;pressure_sealevel;temperature;humidity
4617;BME280;2321;42.704;23.384;2023-04-25T00:00:49;94710.00;;;12.72;100.00
4617;BME280;2321;42.704;23.384;2023-04-25T00:03:19;94709.91;;;12.79;100.00
4617;BME280;2321;42.704;23.384;2023-04-25T00:05:46;94713.56;;;12.84;100.00
4617;BME280;2321;42.704;23.384;2023-04-25T00:08:13;94704.03;;;12.89;100.00
4617;BME280;2321;42.704;23.384;2023-04-25T00:10:40;94698.03;;;12.93;100.00
4617;BME280;2321;42.704;23.384;2023-04-25T00:13:07;94694.91;;;12.96;100.00
4617;BME280;2321;42.704;23.384;2023-04-25T00:15:34;94677.03;;;12.97;100.00
4617;BME280;2321;42.704;23.384;2023-04-25T00:18:01;94674.25;;;13.04;100.00
4617;BME280;2321;42.704;23.384;2023-04-25T00:20:29;94664.25;;;12.99;100.00
4617;BME280;2321;42.704;23.384;2023-04-25T00:22:56;94667.44;;;12.89;100.00
4617;BME280;2321;42.704;23.384;2023-04-25T00:25:23;94655.13;;;12.88;100.00
4617;BME280;2321;42.704;23.384;2023-04-25T00:27:50;94645.72;;;12.85;100.00
4617;BME280;2321;42.704;23.384;2023-04-25T00:30:17;94642.13;;;12.92;100.00
4617;BME280;2321;42.704;23.384;2023-04-25T00:32:44;94645.63;;;12.92;100.00
4617;BME280;2321;42.704;23.384;2023-04-25T00:35:11;94646.91;;;12.90;100.00
4617;BME280;2321;42.704;23.384;2023-04-25T00:37:39;94643.19;;;12.91;100.00
4617;BME280;2321;42.704;23.384;2023-04-25T00:40:07;94639.47;;;12.92;100.00
4617;BME280;2321;42.704;23.384;2023-04-25T00:42:34;94653.88;;;12.91;100.00
4617;BME280;2321;42.704;23.384;2023-04-25T00:45:05;94657.00;;;12.88;100.00
4617;BME280;2321;42.704;23.384;2023-04-25T00:47:32;94648.16;;;12.87;100.00
4617;BME280;2321;42.704;23.384;2023-04-25T00:49:59;94651.66;;;12.88;100.00
4617;BME280;2321;42.704;23.384;2023-04-25T00:52:26;94637.09;;;12.83;100.00
4617;BME280;2321;42.704;23.384;2023-04-25T00:54:54;94638.97;;;12.83;100.00
4617;BME280;2321;42.704;23.384;2023-04-25T00:57:21;94640.00;;;12.82;100.00
4617;BME280;2321;42.704;23.384;2023-04-25T00:59:51;94644.88;;;12.85;100.00
4617;BME280;2321;42.704;23.384;2023-04-25T01:02:18;94658.56;;;12.77;100.00
4617;BME280;2321;42.704;23.384;2023-04-25T01:04:46;94657.16;;;12.74;100.00
4617;BME280;2321;42.704;23.384;2023-04-25T01:07:13;94658.50;;;12.64;100.00
4617;BME280;2321;42.704;23.384;2023-04-25T01:09:41;94648.06;;;12.63;100.00
4617;BME280;2321;42.704;23.384;2023-04-25T01:12:09;94642.72;;;12.63;100.00
4617;BME280;2321;42.704;23.384;2023-04-25T01:14:36;94639.22;;;12.62;100.00
4617;BME280;2321;42.704;23.384;2023-04-25T01:17:03;94626.91;;;12.61;100.00
4617;BME280;2321;42.704;23.384;2023-04-25T01:19:30;94625.50;;;12.59;100.00
4617;BME280;2321;42.704;23.384;2023-04-25T01:21:58;94625.13;;;12.55;100.00
4617;BME280;2321;42.704;23.384;2023-04-25T01:24:26;94622.25;;;12.57;100.00
4617;BME280;2321;42.704;23.384;2023-04-25T01:26:53;94611.56;;;12.57;100.00
4617;BME280;2321;42.704;23.384;2023-04-25T01:29:22;94613.84;;;12.53;100.00
4617;BME280;2321;42.704;23.384;2023-04-25T01:31:50;94609.72;;;12.57;100.00
4617;BME280;2321;42.704;23.384;2023-04-25T01:34:17;94607.94;;;12.51;100.00
4617;BME280;2321;42.704;23.384;2023-04-25T01:36:45;94605.84;;;12.53;100.00
4617;BME280;2321;42.704;23.384;2023-04-25T01:39:14;94607.94;;;12.51;100.00
4617;BME280;2321;42.704;23.384;2023-04-25T01:41:41;94600.72;;;12.51;100.00
4617;BME280;2321;42.704;23.384;2023-04-25T01:44:09;94616.16;;;12.49;100.00
4617;BME280;2321;42.704;23.384;2023-04-25T01:46:36;94609.78;;;12.50;100.00
4617;BME280;2321;42.704;23.384;2023-04-25T01:49:03;94604.06;;;12.47;100.00
4617;BME280;2321;42.704;23.384;2023-04-25T01:51:30;94614.38;;;12.43;100.00
4617;BME280;2321;42.704;23.384;2023-04-25T01:53:57;94615.19;;;12.44;100.00
4617;BME280;2321;42.704;23.384;2023-04-25T01:56:30;94621.81;;;12.41;100.00
4617;BME280;2321;42.704;23.384;2023-04-25T01:58:57;94613.56;;;12.42;100.00
4617;BME280;2321;42.704;23.384;2023-04-25T02:01:24;94615.19;;;12.44;100.00
4617;BME280;2321;42.704;23.384;2023-04-25T02:03:51;94619.13;;;12.41;100.00
4617;BME280;2321;42.704;23.384;2023-04-25T02:06:18;94610.88;;;12.42;100.00
4617;BME280;2321;42.704;23.384;2023-04-25T02:08:44;94609.72;;;12.38;100.00
4617;BME280;2321;42.704;23.384;2023-04-25T02:11:11;94604.38;;;12.38;100.00
4617;BME280;2321;42.704;23.384;2023-04-25T02:13:39;94600.97;;;12.31;100.00
4617;BME280;2321;42.704;23.384;2023-04-25T02:16:06;94601.34;;;12.35;100.00
4617;BME280;2321;42.704;23.384;2023-04-25T02:18:33;94606.44;;;12.36;100.00
4617;BME280;2321;42.704;23.384;2023-04-25T02:21:02;94601.19;;;12.29;100.00
4617;BME280;2321;42.704;23.384;2023-04-25T02:23:29;94591.94;;;12.32;100.00
4617;BME280;2321;42.704;23.384;2023-04-25T02:25:56;94589.63;;;12.36;100.00
4617;BME280;2321;42.704;23.384;2023-04-25T02:28:23;94580.19;;;12.33;100.00
4617;BME280;2321;42.704;23.384;2023-04-25T02:30:52;94573.25;;;12.32;100.00
4617;BME280;2321;42.704;23.384;2023-04-25T02:33:19;94587.03;;;12.29;100.00
4617;BME280;2321;42.704;23.384;2023-04-25T02:35:46;94583.53;;;12.28;100.00
4617;BME280;2321;42.704;23.384;2023-04-25T02:38:13;94581.91;;;12.27;100.00
4617;BME280;2321;42.704;23.384;2023-04-25T02:40:40;94577.38;;;12.28;100.00
4617;BME280;2321;42.704;23.384;2023-04-25T02:43:07;94566.34;;;12.24;100.00
4617;BME280;2321;42.704;23.384;2023-04-25T02:45:34;94563.28;;;12.20;100.00
4617;BME280;2321;42.704;23.384;2023-04-25T02:48:03;94568.28;;;12.17;100.00
4617;BME280;2321;42.704;23.384;2023-04-25T02:50:30;94569.72;;;12.13;100.00
4617;BME280;2321;42.704;23.384;2023-04-25T02:52:57;94565.06;;;12.08;100.00
4617;BME280;2321;42.704;23.384;2023-04-25T02:55:24;94565.66;;;12.10;100.00
4617;BME280;2321;42.704;23.384;2023-04-25T02:57:51;94562.41;;;12.08;100.00
4617;BME280;2321;42.704;23.384;2023-04-25T03:00:20;94568.75;;;12.07;100.00
4617;BME280;2321;42.704;23.384;2023-04-25T03:02:47;94561.66;;;12.01;100.00
4617;BME280;2321;42.704;23.384;2023-04-25T03:05:16;94558.03;;;11.95;100.00
4617;BME280;2321;42.704;23.384;2023-04-25T03:07:43;94560.69;;;11.95;100.00
4617;BME280;2321;42.704;23.384;2023-04-25T03:10:11;94570.53;;;11.94;100.00
4617;BME280;2321;42.704;23.384;2023-04-25T03:12:38;94565.25;;;11.87;100.00
4617;BME280;2321;42.704;23.384;2023-04-25T03:15:06;94559.84;;;11.75;100.00
4617;BME280;2321;42.704;23.384;2023-04-25T03:17:32;94552.53;;;11.71;100.00
4617;BME280;2321;42.704;23.384;2023-04-25T03:19:59;94549.09;;;11.63;100.00
4617;BME280;2321;42.704;23.384;2023-04-25T03:22:28;94562.22;;;11.65;100.00
4617;BME280;2321;42.704;23.384;2023-04-25T03:24:55;94558.72;;;11.64;100.00
4617;BME280;2321;42.704;23.384;2023-04-25T03:27:22;94554.38;;;11.70;100.00
4617;BME280;2321;42.704;23.384;2023-04-25T03:29:48;94559.56;;;11.65;100.00
4617;BME280;2321;42.704;23.384;2023-04-25T03:32:15;94546.44;;;11.63;100.00
4617;BME280;2321;42.704;23.384;2023-04-25T03:34:42;94553.59;;;11.63;100.00
4617;BME280;2321;42.704;23.384;2023-04-25T03:37:09;94559.81;;;11.57;100.00
4617;BME280;2321;42.704;23.384;2023-04-25T03:39:37;94553.44;;;11.58;100.00
4617;BME280;2321;42.704;23.384;2023-04-25T03:42:04;94555.88;;;11.59;100.00
4617;BME280;2321;42.704;23.384;2023-04-25T03:44:31;94555.44;;;11.62;100.00
4617;BME280;2321;42.704;23.384;2023-04-25T03:46:58;94554.03;;;11.60;100.00
4617;BME280;2321;42.704;23.384;2023-04-25T03:49:25;94550.78;;;11.58;100.00
4617;BME280;2321;42.704;23.384;2023-04-25T03:51:51;94552.44;;;11.59;100.00
4617;BME280;2321;42.704;23.384;2023-04-25T03:54:18;94553.84;;;11.61;100.00
4617;BME280;2321;42.704;23.384;2023-04-25T03:56:47;94556.25;;;11.63;100.00
4617;BME280;2321;42.704;23.384;2023-04-25T03:59:14;94549.31;;;11.62;100.00
4617;BME280;2321;42.704;23.384;2023-04-25T04:01:40;94546.81;;;11.67;100.00
4617;BME280;2321;42.704;23.384;2023-04-25T04:04:07;94553.53;;;11.70;100.00
4617;BME280;2321;42.704;23.384;2023-04-25T04:06:34;94551.69;;;11.70;100.00
4617;BME280;2321;42.704;23.384;2023-04-25T04:09:01;94556.28;;;11.82;100.00
4617;BME280;2321;42.704;23.384;2023-04-25T04:11:28;94568.75;;;11.88;100.00
4617;BME280;2321;42.704;23.384;2023-04-25T04:13:58;94571.13;;;11.96;100.00
4617;BME280;2321;42.704;23.384;2023-04-25T04:16:25;94575.66;;;11.96;100.00
4617;BME280;2321;42.704;23.384;2023-04-25T04:18:52;94568.00;;;11.99;100.00
4617;BME280;2321;42.704;23.384;2023-04-25T04:21:19;94573.50;;;12.05;100.00
4617;BME280;2321;42.704;23.384;2023-04-25T04:23:46;94569.97;;;12.11;100.00
4617;BME280;2321;42.704;23.384;2023-04-25T04:26:13;94564.78;;;12.16;100.00
4617;BME280;2321;42.704;23.384;2023-04-25T04:28:41;94561.69;;;12.19;100.00
4617;BME280;2321;42.704;23.384;2023-04-25T04:31:10;94562.25;;;12.22;100.00
4617;BME280;2321;42.704;23.384;2023-04-25T04:33:37;94563.66;;;12.24;100.00
4617;BME280;2321;42.704;23.384;2023-04-25T04:36:05;94560.47;;;12.34;100.00
4617;BME280;2321;42.704;23.384;2023-04-25T04:38:33;94559.13;;;12.44;100.00
4617;BME280;2321;42.704;23.384;2023-04-25T04:41:00;94558.69;;;12.47;100.00
4617;BME280;2321;42.704;23.384;2023-04-25T04:43:27;94554.81;;;12.42;100.00
4617;BME280;2321;42.704;23.384;2023-04-25T04:45:55;94563.19;;;12.46;100.00
4617;BME280;2321;42.704;23.384;2023-04-25T04:48:24;94564.59;;;12.49;100.00
4617;BME280;2321;42.704;23.384;2023-04-25T04:50:50;94570.41;;;12.46;100.00
4617;BME280;2321;42.704;23.384;2023-04-25T04:53:17;94567.09;;;12.31;100.00
4617;BME280;2321;42.704;23.384;2023-04-25T04:55:44;94565.06;;;12.27;100.00
4617;BME280;2321;42.704;23.384;2023-04-25T04:58:11;94575.69;;;12.34;100.00
4617;BME280;2321;42.704;23.384;2023-04-25T05:00:38;94576.50;;;12.34;100.00
4617;BME280;2321;42.704;23.384;2023-04-25T05:03:05;94578.13;;;12.35;100.00
4617;BME280;2321;42.704;23.384;2023-04-25T05:05:33;94574.41;;;12.36;100.00
4617;BME280;2321;42.704;23.384;2023-04-25T05:08:00;94581.97;;;12.39;100.00
4617;BME280;2321;42.704;23.384;2023-04-25T05:10:27;94585.59;;;12.45;100.00
4617;BME280;2321;42.704;23.384;2023-04-25T05:12:54;94589.53;;;12.42;100.00
4617;BME280;2321;42.704;23.384;2023-04-25T05:15:21;94599.31;;;12.49;100.00
4617;BME280;2321;42.704;23.384;2023-04-25T05:17:48;94591.38;;;12.42;100.00
4617;BME280;2321;42.704;23.384;2023-04-25T05:20:14;94592.88;;;12.38;100.00
4617;BME280;2321;42.704;23.384;2023-04-25T05:22:43;94603.31;;;12.39;100.00
4617;BME280;2321;42.704;23.384;2023-04-25T05:25:10;94605.41;;;12.37;100.00
4617;BME280;2321;42.704;23.384;2023-04-25T05:27:37;94587.75;;;12.36;100.00
4617;BME280;2321;42.704;23.384;2023-04-25T05:30:05;94590.59;;;12.41;100.00
4617;BME280;2321;42.704;23.384;2023-04-25T05:32:32;94593.69;;;12.38;100.00
4617;BME280;2321;42.704;23.384;2023-04-25T05:34:59;94588.44;;;12.31;100.00
4617;BME280;2321;42.704;23.384;2023-04-25T05:37:26;94584.00;;;12.25;100.00
4617;BME280;2321;42.704;23.384;2023-04-25T05:39:54;94586.66;;;12.25;100.00
4617;BME280;2321;42.704;23.384;2023-04-25T05:42:21;94581.63;;;12.17;100.00
4617;BME280;2321;42.704;23.384;2023-04-25T05:44:48;94587.78;;;12.17;100.00
4617;BME280;2321;42.704;23.384;2023-04-25T05:47:15;94573.97;;;12.20;100.00
4617;BME280;2321;42.704;23.384;2023-04-25T05:49:42;94581.75;;;12.22;100.00
4617;BME280;2321;42.704;23.384;2023-04-25T05:52:09;94579.41;;;12.33;100.00
4617;BME280;2321;42.704;23.384;2023-04-25T05:54:36;94586.41;;;12.46;100.00
4617;BME280;2321;42.704;23.384;2023-04-25T05:57:04;94591.81;;;12.58;100.00
4617;BME280;2321;42.704;23.384;2023-04-25T05:59:31;94589.50;;;12.61;100.00
4617;BME280;2321;42.704;23.384;2023-04-25T06:01:58;94588.75;;;12.73;100.00
4617;BME280;2321;42.704;23.384;2023-04-25T06:04:26;94588.28;;;12.76;100.00
4617;BME280;2321;42.704;23.384;2023-04-25T06:06:52;94588.00;;;12.84;100.00
4617;BME280;2321;42.704;23.384;2023-04-25T06:09:19;94580.84;;;12.97;100.00
4617;BME280;2321;42.704;23.384;2023-04-25T06:11:46;94583.31;;;13.11;100.00
4617;BME280;2321;42.704;23.384;2023-04-25T06:14:14;94589.13;;;13.20;100.00
4617;BME280;2321;42.704;23.384;2023-04-25T06:16:41;94585.09;;;13.29;100.00
4617;BME280;2321;42.704;23.384;2023-04-25T06:19:08;94588.25;;;13.38;100.00
4617;BME280;2321;42.704;23.384;2023-04-25T06:21:35;94589.53;;;13.47;100.00
4617;BME280;2321;42.704;23.384;2023-04-25T06:24:02;94600.13;;;13.54;100.00
4617;BME280;2321;42.704;23.384;2023-04-25T06:26:29;94586.91;;;13.59;100.00
4617;BME280;2321;42.704;23.384;2023-04-25T06:28:56;94603.31;;;13.63;100.00
4617;BME280;2321;42.704;23.384;2023-04-25T06:31:24;94603.06;;;13.65;100.00
4617;BME280;2321;42.704;23.384;2023-04-25T06:33:51;94603.78;;;13.72;100.00
4617;BME280;2321;42.704;23.384;2023-04-25T06:36:20;94606.09;;;13.68;100.00
4617;BME280;2321;42.704;23.384;2023-04-25T06:38:50;94604.81;;;13.71;100.00
4617;BME280;2321;42.704;23.384;2023-04-25T06:41:17;94595.63;;;13.79;100.00
4617;BME280;2321;42.704;23.384;2023-04-25T06:43:44;94594.00;;;13.90;100.00
4617;BME280;2321;42.704;23.384;2023-04-25T06:46:11;94600.28;;;13.96;100.00
4617;BME280;2321;42.704;23.384;2023-04-25T06:48:39;94590.75;;;14.00;100.00
4617;BME280;2321;42.704;23.384;2023-04-25T06:51:06;94598.41;;;14.08;100.00
4617;BME280;2321;42.704;23.384;2023-04-25T06:53:32;94594.44;;;14.11;100.00
4617;BME280;2321;42.704;23.384;2023-04-25T06:55:59;94602.34;;;14.18;100.00
4617;BME280;2321;42.704;23.384;2023-04-25T06:58:26;94603.19;;;14.18;100.00
4617;BME280;2321;42.704;23.384;2023-04-25T07:00:53;94609.81;;;14.27;100.00
4617;BME280;2321;42.704;23.384;2023-04-25T07:03:20;94609.22;;;14.37;100.00
4617;BME280;2321;42.704;23.384;2023-04-25T07:05:48;94603.94;;;14.43;100.00
4617;BME280;2321;42.704;23.384;2023-04-25T07:08:15;94589.84;;;14.47;100.00
4617;BME280;2321;42.704;23.384;2023-04-25T07:10:42;94601.50;;;14.53;100.00
4617;BME280;2321;42.704;23.384;2023-04-25T07:13:09;94596.44;;;14.57;100.00
4617;BME280;2321;42.704;23.384;2023-04-25T07:15:36;94604.63;;;14.62;100.00
4617;BME280;2321;42.704;23.384;2023-04-25T07:18:03;94597.41;;;14.63;100.00
4617;BME280;2321;42.704;23.384;2023-04-25T07:20:30;94606.22;;;14.63;100.00
4617;BME280;2321;42.704;23.384;2023-04-25T07:22:59;94596.91;;;14.66;100.00
4617;BME280;2321;42.704;23.384;2023-04-25T07:25:26;94600.88;;;14.63;100.00
4617;BME280;2321;42.704;23.384;2023-04-25T07:27:53;94595.84;;;14.67;100.00
4617;BME280;2321;42.704;23.384;2023-04-25T07:30:20;94590.84;;;14.70;100.00
4617;BME280;2321;42.704;23.384;2023-04-25T07:32:47;94594.91;;;14.73;100.00
4617;BME280;2321;42.704;23.384;2023-04-25T07:35:14;94595.59;;;14.80;100.00
4617;BME280;2321;42.704;23.384;2023-04-25T07:37:41;94593.00;;;14.86;100.00
4617;BME280;2321;42.704;23.384;2023-04-25T07:40:10;94595.31;;;14.94;100.00
4617;BME280;2321;42.704;23.384;2023-04-25T07:42:37;94586.31;;;15.00;100.00
4617;BME280;2321;42.704;23.384;2023-04-25T07:45:04;94585.84;;;15.03;100.00
4617;BME280;2321;42.704;23.384;2023-04-25T07:47:31;94590.22;;;15.10;100.00
4617;BME280;2321;42.704;23.384;2023-04-25T07:49:58;94576.91;;;15.15;100.00
4617;BME280;2321;42.704;23.384;2023-04-25T07:52:25;94591.16;;;15.33;100.00
4617;BME280;2321;42.704;23.384;2023-04-25T07:54:52;94581.81;;;15.35;100.00
4617;BME280;2321;42.704;23.384;2023-04-25T07:57:21;94584.16;;;15.32;100.00
4617;BME280;2321;42.704;23.384;2023-04-25T07:59:47;94579.78;;;15.43;100.00
4617;BME280;2321;42.704;23.384;2023-04-25T08:02:14;94582.16;;;15.39;100.00
4617;BME280;2321;42.704;23.384;2023-04-25T08:04:41;94584.25;;;15.37;100.00
4617;BME280;2321;42.704;23.384;2023-04-25T08:07:08;94587.75;;;15.38;100.00
4617;BME280;2321;42.704;23.384;2023-04-25T08:09:35;94577.28;;;15.36;100.00
4617;BME280;2321;42.704;23.384;2023-04-25T08:12:03;94585.88;;;15.38;100.00
4617;BME280;2321;42.704;23.384;2023-04-25T08:14:31;94580.53;;;15.38;100.00
4617;BME280;2321;42.704;23.384;2023-04-25T08:17:01;94587.03;;;15.42;100.00
4617;BME280;2321;42.704;23.384;2023-04-25T08:19:28;94578.25;;;15.47;100.00
4617;BME280;2321;42.704;23.384;2023-04-25T08:21:55;94579.53;;;15.62;100.00
4617;BME280;2321;42.704;23.384;2023-04-25T08:24:22;94567.19;;;15.78;100.00
4617;BME280;2321;42.704;23.384;2023-04-25T08:26:49;94560.16;;;15.94;100.00
4617;BME280;2321;42.704;23.384;2023-04-25T08:29:16;94567.16;;;16.13;100.00
4617;BME280;2321;42.704;23.384;2023-04-25T08:31:44;94564.66;;;16.28;100.00
4617;BME280;2321;42.704;23.384;2023-04-25T08:34:11;94557.22;;;16.36;100.00
4617;BME280;2321;42.704;23.384;2023-04-25T08:36:39;94549.72;;;16.38;100.00
4617;BME280;2321;42.704;23.384;2023-04-25T08:39:06;94564.34;;;16.47;100.00
4617;BME280;2321;42.704;23.384;2023-04-25T08:41:32;94568.66;;;16.48;100.00
4617;BME280;2321;42.704;23.384;2023-04-25T08:44:00;94571.59;;;16.47;100.00
4617;BME280;2321;42.704;23.384;2023-04-25T08:46:30;94584.41;;;16.39;100.00
4617;BME280;2321;42.704;23.384;2023-04-25T08:49:01;94594.88;;;16.01;100.00
4617;BME280;2321;42.704;23.384;2023-04-25T08:51:31;94580.19;;;15.52;100.00
4617;BME280;2321;42.704;23.384;2023-04-25T08:54:08;94583.91;;;15.16;100.00
4617;BME280;2321;42.704;23.384;2023-04-25T08:56:35;94585.69;;;14.81;100.00
4617;BME280;2321;42.704;23.384;2023-04-25T08:59:02;94574.28;;;14.74;100.00
4617;BME280;2321;42.704;23.384;2023-04-25T09:01:29;94566.63;;;14.65;100.00
4617;BME280;2321;42.704;23.384;2023-04-25T09:03:58;94563.44;;;14.80;100.00
4617;BME280;2321;42.704;23.384;2023-04-25T09:06:25;94556.28;;;14.86;100.00
4617;BME280;2321;42.704;23.384;2023-04-25T09:08:53;94553.91;;;15.02;100.00
4617;BME280;2321;42.704;23.384;2023-04-25T09:11:19;94552.63;;;15.05;100.00
4617;BME280;2321;42.704;23.384;2023-04-25T09:13:46;94546.03;;;15.12;100.00
4617;BME280;2321;42.704;23.384;2023-04-25T09:16:13;94550.59;;;15.12;100.00
4617;BME280;2321;42.704;23.384;2023-04-25T09:18:42;94546.28;;;15.11;100.00
4617;BME280;2321;42.704;23.384;2023-04-25T09:21:12;94541.81;;;15.17;100.00
4617;BME280;2321;42.704;23.384;2023-04-25T09:23:39;94534.19;;;15.43;100.00
4617;BME280;2321;42.704;23.384;2023-04-25T09:26:07;94523.03;;;15.68;100.00
4617;BME280;2321;42.704;23.384;2023-04-25T09:28:34;94532.34;;;15.83;100.00
4617;BME280;2321;42.704;23.384;2023-04-25T09:31:01;94530.16;;;15.97;100.00
4617;BME280;2321;42.704;23.384;2023-04-25T09:33:29;94527.84;;;16.06;100.00
4617;BME280;2321;42.704;23.384;2023-04-25T09:36:02;94537.34;;;16.14;100.00
4617;BME280;2321;42.704;23.384;2023-04-25T09:38:32;94533.19;;;16.23;100.00
4617;BME280;2321;42.704;23.384;2023-04-25T09:40:59;94539.19;;;16.31;100.00
4617;BME280;2321;42.704;23.384;2023-04-25T09:43:27;94543.56;;;16.37;100.00
4617;BME280;2321;42.704;23.384;2023-04-25T09:45:55;94535.28;;;16.44;100.00
4617;BME280;2321;42.704;23.384;2023-04-25T09:48:25;94520.13;;;16.55;100.00
4617;BME280;2321;42.704;23.384;2023-04-25T09:51:06;94524.41;;;16.84;100.00
4617;BME280;2321;42.704;23.384;2023-04-25T09:53:36;94530.00;;;17.05;100.00
4617;BME280;2321;42.704;23.384;2023-04-25T09:56:04;94528.72;;;17.13;100.00
4617;BME280;2321;42.704;23.384;2023-04-25T09:58:32;94528.69;;;17.07;100.00
4617;BME280;2321;42.704;23.384;2023-04-25T10:01:01;94518.09;;;16.95;100.00
4617;BME280;2321;42.704;23.384;2023-04-25T10:03:29;94530.28;;;17.08;100.00
4617;BME280;2321;42.704;23.384;2023-04-25T10:05:59;94538.59;;;17.02;100.00
4617;BME280;2321;42.704;23.384;2023-04-25T10:08:30;94547.16;;;16.98;100.00
4617;BME280;2321;42.704;23.384;2023-04-25T10:11:00;94543.09;;;16.96;100.00
4617;BME280;2321;42.704;23.384;2023-04-25T10:13:29;94527.41;;;16.87;100.00
4617;BME280;2321;42.704;23.384;2023-04-25T10:15:57;94515.44;;;17.01;100.00
4617;BME280;2321;42.704;23.384;2023-04-25T10:18:25;94520.03;;;17.05;100.00
4617;BME280;2321;42.704;23.384;2023-04-25T10:20:53;94510.56;;;16.97;94.58
4617;BME280;2321;42.704;23.384;2023-04-25T10:23:20;94524.41;;;16.84;96.35
4617;BME280;2321;42.704;23.384;2023-04-25T10:25:47;94515.72;;;16.71;95.40
4617;BME280;2321;42.704;23.384;2023-04-25T10:28:16;94527.47;;;16.65;96.77
4617;BME280;2321;42.704;23.384;2023-04-25T10:30:57;94529.28;;;16.59;100.00
4617;BME280;2321;42.704;23.384;2023-04-25T10:33:30;94535.38;;;16.49;99.53
4617;BME280;2321;42.704;23.384;2023-04-25T10:35:59;94540.47;;;16.51;100.00
4617;BME280;2321;42.704;23.384;2023-04-25T10:38:36;94541.16;;;16.41;100.00
4617;BME280;2321;42.704;23.384;2023-04-25T10:41:03;94547.38;;;16.19;100.00
4617;BME280;2321;42.704;23.384;2023-04-25T10:43:36;94547.94;;;15.64;100.00
4617;BME280;2321;42.704;23.384;2023-04-25T10:46:13;94564.47;;;15.09;100.00
4617;BME280;2321;42.704;23.384;2023-04-25T10:48:48;94556.72;;;14.66;100.00
4617;BME280;2321;42.704;23.384;2023-04-25T10:51:17;94548.28;;;14.45;100.00
4617;BME280;2321;42.704;23.384;2023-04-25T10:53:44;94530.81;;;14.42;100.00
4617;BME280;2321;42.704;23.384;2023-04-25T10:56:12;94536.19;;;14.42;100.00
4617;BME280;2321;42.704;23.384;2023-04-25T10:58:45;94535.22;;;14.48;100.00
4617;BME280;2321;42.704;23.384;2023-04-25T11:01:12;94526.69;;;14.64;100.00
4617;BME280;2321;42.704;23.384;2023-04-25T11:03:43;94523.78;;;14.82;100.00
4617;BME280;2321;42.704;23.384;2023-04-25T11:06:18;94516.63;;;15.00;100.00
4617;BME280;2321;42.704;23.384;2023-04-25T11:08:48;94516.66;;;15.18;100.00
4617;BME280;2321;42.704;23.384;2023-04-25T11:11:16;94521.91;;;15.47;100.00
4617;BME280;2321;42.704;23.384;2023-04-25T11:13:47;94517.50;;;15.58;100.00
4617;BME280;2321;42.704;23.384;2023-04-25T11:16:14;94516.69;;;15.75;100.00
4617;BME280;2321;42.704;23.384;2023-04-25T11:18:41;94502.97;;;15.94;100.00
4617;BME280;2321;42.704;23.384;2023-04-25T11:21:08;94508.09;;;16.13;100.00
4617;BME280;2321;42.704;23.384;2023-04-25T11:23:36;94500.50;;;16.32;100.00
4617;BME280;2321;42.704;23.384;2023-04-25T11:26:03;94506.63;;;16.50;99.90
4617;BME280;2321;42.704;23.384;2023-04-25T11:28:30;94506.25;;;16.69;100.00
4617;BME280;2321;42.704;23.384;2023-04-25T11:30:58;94493.09;;;16.67;91.83
4617;BME280;2321;42.704;23.384;2023-04-25T11:33:26;94493.84;;;16.62;85.60
4617;BME280;2321;42.704;23.384;2023-04-25T11:35:54;94486.28;;;16.59;84.29
4617;BME280;2321;42.704;23.384;2023-04-25T11:38:22;94499.16;;;16.57;75.67
4617;BME280;2321;42.704;23.384;2023-04-25T11:40:50;94491.81;;;16.47;71.64
4617;BME280;2321;42.704;23.384;2023-04-25T11:43:18;94500.56;;;16.37;77.10
4617;BME280;2321;42.704;23.384;2023-04-25T11:45:47;94504.38;;;16.41;77.90
4617;BME280;2321;42.704;23.384;2023-04-25T11:48:15;94494.38;;;16.37;71.91
4617;BME280;2321;42.704;23.384;2023-04-25T11:50:42;94488.06;;;16.26;82.74
4617;BME280;2321;42.704;23.384;2023-04-25T11:53:10;94504.31;;;16.14;84.04
4617;BME280;2321;42.704;23.384;2023-04-25T11:55:37;94502.41;;;16.09;85.44
4617;BME280;2321;42.704;23.384;2023-04-25T11:58:05;94508.09;;;16.13;93.11
4617;BME280;2321;42.704;23.384;2023-04-25T12:00:34;94490.88;;;16.14;93.53
4617;BME280;2321;42.704;23.384;2023-04-25T12:03:01;94485.53;;;16.14;90.96
4617;BME280;2321;42.704;23.384;2023-04-25T12:05:30;94482.91;;;16.19;94.12
4617;BME280;2321;42.704;23.384;2023-04-25T12:08:09;94483.47;;;16.43;84.35
4617;BME280;2321;42.704;23.384;2023-04-25T12:10:37;94486.59;;;16.63;84.76
4617;BME280;2321;42.704;23.384;2023-04-25T12:13:18;94485.56;;;16.97;88.90
4617;BME280;2321;42.704;23.384;2023-04-25T12:15:46;94486.25;;;17.15;83.84
4617;BME280;2321;42.704;23.384;2023-04-25T12:18:12;94492.88;;;17.29;84.86
4617;BME280;2321;42.704;23.384;2023-04-25T12:20:41;94501.72;;;17.30;80.89
4617;BME280;2321;42.704;23.384;2023-04-25T12:23:08;94493.09;;;17.28;77.09
4617;BME280;2321;42.704;23.384;2023-04-25T12:25:37;94491.22;;;17.28;76.60
4617;BME280;2321;42.704;23.384;2023-04-25T12:28:12;94488.78;;;17.27;74.35
4617;BME280;2321;42.704;23.384;2023-04-25T12:30:54;94479.16;;;17.03;69.34
4617;BME280;2321;42.704;23.384;2023-04-25T12:33:21;94503.06;;;16.99;69.64
4617;BME280;2321;42.704;23.384;2023-04-25T12:35:49;94531.47;;;16.90;75.31
4617;BME280;2321;42.704;23.384;2023-04-25T12:38:24;94551.41;;;16.66;80.26
4617;BME280;2321;42.704;23.384;2023-04-25T12:40:51;94544.59;;;16.14;100.00
4617;BME280;2321;42.704;23.384;2023-04-25T12:43:18;94557.25;;;15.61;100.00
4617;BME280;2321;42.704;23.384;2023-04-25T12:45:46;94537.50;;;14.98;100.00
4617;BME280;2321;42.704;23.384;2023-04-25T12:48:13;94555.84;;;14.48;100.00
4617;BME280;2321;42.704;23.384;2023-04-25T12:50:40;94555.25;;;14.16;100.00
4617;BME280;2321;42.704;23.384;2023-04-25T12:53:09;94542.47;;;13.94;100.00
4617;BME280;2321;42.704;23.384;2023-04-25T12:55:36;94542.56;;;14.00;100.00
4617;BME280;2321;42.704;23.384;2023-04-25T12:58:03;94551.06;;;13.97;100.00
4617;BME280;2321;42.704;23.384;2023-04-25T13:00:30;94540.63;;;13.95;100.00
4617;BME280;2321;42.704;23.384;2023-04-25T13:02:57;94547.81;;;13.94;100.00
4617;BME280;2321;42.704;23.384;2023-04-25T13:05:24;94542.81;;;13.98;100.00